sensor_id;sensor_type;location;lat;lon;timestamp;temperature;humidity
54578;DHT22;40474;49.330;8.130;2022-07-23T00:00:44;24.40;78.70
54578;DHT22;40474;49.330;8.130;2022-07-23T00:03:11;24.50;76.80
54578;DHT22;40474;49.330;8.130;2022-07-23T00:05:37;24.70;72.90
54578;DHT22;40474;49.330;8.130;2022-07-23T00:08:05;24.90;73.70
54578;DHT22;40474;49.330;8.130;2022-07-23T00:10:38;25.00;72.20
54578;DHT22;40474;49.330;8.130;2022-07-23T00:13:06;25.20;71.60
54578;DHT22;40474;49.330;8.130;2022-07-23T00:15:33;25.20;69.40
54578;DHT22;40474;49.330;8.130;2022-07-23T00:17:59;25.20;70.90
54578;DHT22;40474;49.330;8.130;2022-07-23T00:20:26;25.30;69.90
54578;DHT22;40474;49.330;8.130;2022-07-23T00:22:53;25.30;68.60
54578;DHT22;40474;49.330;8.130;2022-07-23T00:25:21;25.30;68.50
54578;DHT22;40474;49.330;8.130;2022-07-23T00:27:54;25.30;68.90
54578;DHT22;40474;49.330;8.130;2022-07-23T00:30:22;25.40;68.80
54578;DHT22;40474;49.330;8.130;2022-07-23T00:32:50;25.30;68.50
54578;DHT22;40474;49.330;8.130;2022-07-23T00:35:23;25.30;68.80
54578;DHT22;40474;49.330;8.130;2022-07-23T00:40:20;25.40;66.90
54578;DHT22;40474;49.330;8.130;2022-07-23T00:42:47;25.30;66.50
54578;DHT22;40474;49.330;8.130;2022-07-23T00:45:14;25.30;69.60
54578;DHT22;40474;49.330;8.130;2022-07-23T00:47:41;25.10;74.30
54578;DHT22;40474;49.330;8.130;2022-07-23T00:52:41;24.60;77.00
54578;DHT22;40474;49.330;8.130;2022-07-23T00:55:13;24.50;77.50
54578;DHT22;40474;49.330;8.130;2022-07-23T00:57:41;24.40;78.50
54578;DHT22;40474;49.330;8.130;2022-07-23T01:00:09;24.30;78.40
54578;DHT22;40474;49.330;8.130;2022-07-23T01:02:37;24.30;78.50
54578;DHT22;40474;49.330;8.130;2022-07-23T01:05:06;24.30;80.60
54578;DHT22;40474;49.330;8.130;2022-07-23T01:07:33;24.20;80.70
54578;DHT22;40474;49.330;8.130;2022-07-23T01:10:00;24.20;78.30
54578;DHT22;40474;49.330;8.130;2022-07-23T01:12:29;24.20;80.50
54578;DHT22;40474;49.330;8.130;2022-07-23T01:14:56;24.20;79.40
54578;DHT22;40474;49.330;8.130;2022-07-23T01:17:23;24.30;80.50
54578;DHT22;40474;49.330;8.130;2022-07-23T01:19:52;24.20;79.90
54578;DHT22;40474;49.330;8.130;2022-07-23T01:22:21;24.10;81.30
54578;DHT22;40474;49.330;8.130;2022-07-23T01:24:49;24.00;81.30
54578;DHT22;40474;49.330;8.130;2022-07-23T01:27:16;24.00;79.80
54578;DHT22;40474;49.330;8.130;2022-07-23T01:29:44;24.10;79.40
54578;DHT22;40474;49.330;8.130;2022-07-23T01:32:11;24.20;80.20
54578;DHT22;40474;49.330;8.130;2022-07-23T01:34:38;24.30;79.80
54578;DHT22;40474;49.330;8.130;2022-07-23T01:37:08;24.40;78.60
54578;DHT22;40474;49.330;8.130;2022-07-23T01:39:35;24.40;78.60
54578;DHT22;40474;49.330;8.130;2022-07-23T01:42:03;24.30;77.80
54578;DHT22;40474;49.330;8.130;2022-07-23T01:44:30;24.30;78.70
54578;DHT22;40474;49.330;8.130;2022-07-23T01:46:58;24.30;78.40
54578;DHT22;40474;49.330;8.130;2022-07-23T01:49:25;24.30;78.10
54578;DHT22;40474;49.330;8.130;2022-07-23T01:51:52;24.30;78.50
54578;DHT22;40474;49.330;8.130;2022-07-23T01:54:28;24.30;78.70
54578;DHT22;40474;49.330;8.130;2022-07-23T01:56:55;24.20;78.00
54578;DHT22;40474;49.330;8.130;2022-07-23T01:59:22;24.20;78.70
54578;DHT22;40474;49.330;8.130;2022-07-23T02:01:52;24.30;78.40
54578;DHT22;40474;49.330;8.130;2022-07-23T02:04:22;24.30;76.90
54578;DHT22;40474;49.330;8.130;2022-07-23T02:06:49;24.30;76.30
54578;DHT22;40474;49.330;8.130;2022-07-23T02:09:16;24.20;76.30
54578;DHT22;40474;49.330;8.130;2022-07-23T02:11:43;24.30;77.20
54578;DHT22;40474;49.330;8.130;2022-07-23T02:14:11;24.20;77.00
54578;DHT22;40474;49.330;8.130;2022-07-23T02:16:38;24.30;76.80
54578;DHT22;40474;49.330;8.130;2022-07-23T02:19:05;24.30;77.30
54578;DHT22;40474;49.330;8.130;2022-07-23T02:21:32;24.30;75.60
54578;DHT22;40474;49.330;8.130;2022-07-23T02:23:58;24.20;75.70
54578;DHT22;40474;49.330;8.130;2022-07-23T02:26:25;24.20;77.50
54578;DHT22;40474;49.330;8.130;2022-07-23T02:28:55;24.10;77.90
54578;DHT22;40474;49.330;8.130;2022-07-23T02:31:22;23.90;80.30
54578;DHT22;40474;49.330;8.130;2022-07-23T02:33:49;23.80;80.20
54578;DHT22;40474;49.330;8.130;2022-07-23T02:36:16;23.70;80.70
54578;DHT22;40474;49.330;8.130;2022-07-23T02:38:49;23.60;82.50
54578;DHT22;40474;49.330;8.130;2022-07-23T02:41:16;23.50;82.70
54578;DHT22;40474;49.330;8.130;2022-07-23T02:43:43;23.50;82.40
54578;DHT22;40474;49.330;8.130;2022-07-23T02:46:10;23.40;83.30
54578;DHT22;40474;49.330;8.130;2022-07-23T02:48:37;23.30;83.50
54578;DHT22;40474;49.330;8.130;2022-07-23T02:51:04;23.30;83.80
54578;DHT22;40474;49.330;8.130;2022-07-23T02:53:40;23.30;83.20
54578;DHT22;40474;49.330;8.130;2022-07-23T02:56:08;23.30;83.80
54578;DHT22;40474;49.330;8.130;2022-07-23T02:58:37;23.50;83.60
54578;DHT22;40474;49.330;8.130;2022-07-23T03:01:04;23.40;83.00
54578;DHT22;40474;49.330;8.130;2022-07-23T03:03:31;23.40;82.90
54578;DHT22;40474;49.330;8.130;2022-07-23T03:05:59;23.40;83.60
54578;DHT22;40474;49.330;8.130;2022-07-23T03:08:26;23.50;83.30
54578;DHT22;40474;49.330;8.130;2022-07-23T03:10:53;23.50;83.10
54578;DHT22;40474;49.330;8.130;2022-07-23T03:13:21;23.60;83.10
54578;DHT22;40474;49.330;8.130;2022-07-23T03:15:47;23.60;82.10
54578;DHT22;40474;49.330;8.130;2022-07-23T03:18:14;23.60;82.00
54578;DHT22;40474;49.330;8.130;2022-07-23T03:20:41;23.60;81.80
54578;DHT22;40474;49.330;8.130;2022-07-23T03:23:09;23.50;82.80
54578;DHT22;40474;49.330;8.130;2022-07-23T03:25:36;23.50;82.80
54578;DHT22;40474;49.330;8.130;2022-07-23T03:28:03;23.50;82.50
54578;DHT22;40474;49.330;8.130;2022-07-23T03:30:30;23.40;83.40
54578;DHT22;40474;49.330;8.130;2022-07-23T03:32:57;23.30;82.40
54578;DHT22;40474;49.330;8.130;2022-07-23T03:35:23;23.40;83.10
54578;DHT22;40474;49.330;8.130;2022-07-23T03:37:53;23.40;83.80
54578;DHT22;40474;49.330;8.130;2022-07-23T03:40:20;23.40;83.60
54578;DHT22;40474;49.330;8.130;2022-07-23T03:42:52;23.40;83.50
54578;DHT22;40474;49.330;8.130;2022-07-23T03:45:19;23.60;82.50
54578;DHT22;40474;49.330;8.130;2022-07-23T03:47:46;23.60;83.30
54578;DHT22;40474;49.330;8.130;2022-07-23T03:50:13;23.60;82.80
54578;DHT22;40474;49.330;8.130;2022-07-23T03:52:40;23.50;85.90
54578;DHT22;40474;49.330;8.130;2022-07-23T03:55:06;23.30;87.50
54578;DHT22;40474;49.330;8.130;2022-07-23T03:57:33;23.10;92.30
54578;DHT22;40474;49.330;8.130;2022-07-23T04:00:00;22.80;88.30
54578;DHT22;40474;49.330;8.130;2022-07-23T04:02:27;22.80;92.20
54578;DHT22;40474;49.330;8.130;2022-07-23T04:04:54;22.80;92.30
54578;DHT22;40474;49.330;8.130;2022-07-23T04:07:21;22.70;92.80
54578;DHT22;40474;49.330;8.130;2022-07-23T04:09:48;22.60;93.30
54578;DHT22;40474;49.330;8.130;2022-07-23T04:12:24;22.40;94.30
54578;DHT22;40474;49.330;8.130;2022-07-23T04:14:56;22.20;95.80
54578;DHT22;40474;49.330;8.130;2022-07-23T04:17:25;22.10;94.80
54578;DHT22;40474;49.330;8.130;2022-07-23T04:19:53;22.10;96.10
54578;DHT22;40474;49.330;8.130;2022-07-23T04:22:20;22.00;95.80
54578;DHT22;40474;49.330;8.130;2022-07-23T04:24:47;21.90;96.40
54578;DHT22;40474;49.330;8.130;2022-07-23T04:27:19;21.90;94.70
54578;DHT22;40474;49.330;8.130;2022-07-23T04:29:46;22.00;95.60
54578;DHT22;40474;49.330;8.130;2022-07-23T04:32:13;22.10;95.40
54578;DHT22;40474;49.330;8.130;2022-07-23T04:34:39;22.00;96.50
54578;DHT22;40474;49.330;8.130;2022-07-23T04:37:06;21.90;96.50
54578;DHT22;40474;49.330;8.130;2022-07-23T04:39:33;21.90;95.70
54578;DHT22;40474;49.330;8.130;2022-07-23T04:42:00;22.00;95.70
54578;DHT22;40474;49.330;8.130;2022-07-23T04:44:27;22.00;95.40
54578;DHT22;40474;49.330;8.130;2022-07-23T04:46:53;22.20;92.60
54578;DHT22;40474;49.330;8.130;2022-07-23T04:49:21;22.40;91.80
54578;DHT22;40474;49.330;8.130;2022-07-23T04:51:48;22.70;91.70
54578;DHT22;40474;49.330;8.130;2022-07-23T04:54:14;22.90;93.60
54578;DHT22;40474;49.330;8.130;2022-07-23T04:59:12;23.00;94.10
54578;DHT22;40474;49.330;8.130;2022-07-23T05:01:39;22.90;91.50
54578;DHT22;40474;49.330;8.130;2022-07-23T05:04:05;22.90;91.80
54578;DHT22;40474;49.330;8.130;2022-07-23T05:06:33;22.90;92.90
54578;DHT22;40474;49.330;8.130;2022-07-23T05:09:00;22.70;94.00
54578;DHT22;40474;49.330;8.130;2022-07-23T05:13:59;22.00;93.30
54578;DHT22;40474;49.330;8.130;2022-07-23T05:16:26;22.00;93.00
54578;DHT22;40474;49.330;8.130;2022-07-23T05:18:56;22.10;96.60
54578;DHT22;40474;49.330;8.130;2022-07-23T05:21:22;22.00;95.80
54578;DHT22;40474;49.330;8.130;2022-07-23T05:23:49;21.90;97.00
54578;DHT22;40474;49.330;8.130;2022-07-23T05:26:16;21.80;97.80
54578;DHT22;40474;49.330;8.130;2022-07-23T05:28:43;21.80;97.20
54578;DHT22;40474;49.330;8.130;2022-07-23T05:31:15;21.70;94.90
54578;DHT22;40474;49.330;8.130;2022-07-23T05:33:42;21.90;95.00
54578;DHT22;40474;49.330;8.130;2022-07-23T05:36:09;22.00;97.80
54578;DHT22;40474;49.330;8.130;2022-07-23T05:38:35;22.10;97.40
54578;DHT22;40474;49.330;8.130;2022-07-23T05:41:02;22.20;94.00
54578;DHT22;40474;49.330;8.130;2022-07-23T05:43:29;22.50;93.70
54578;DHT22;40474;49.330;8.130;2022-07-23T05:45:56;22.80;91.90
54578;DHT22;40474;49.330;8.130;2022-07-23T05:48:22;23.10;96.20
54578;DHT22;40474;49.330;8.130;2022-07-23T05:50:50;22.90;95.40
54578;DHT22;40474;49.330;8.130;2022-07-23T05:53:17;22.60;95.40
54578;DHT22;40474;49.330;8.130;2022-07-23T05:55:44;22.60;96.80
54578;DHT22;40474;49.330;8.130;2022-07-23T05:58:10;22.70;95.70
54578;DHT22;40474;49.330;8.130;2022-07-23T06:00:37;22.80;94.30
54578;DHT22;40474;49.330;8.130;2022-07-23T06:03:04;22.80;95.90
54578;DHT22;40474;49.330;8.130;2022-07-23T06:05:31;22.50;97.10
54578;DHT22;40474;49.330;8.130;2022-07-23T06:08:01;22.40;97.00
54578;DHT22;40474;49.330;8.130;2022-07-23T06:10:27;22.40;98.30
54578;DHT22;40474;49.330;8.130;2022-07-23T06:12:54;22.30;97.40
54578;DHT22;40474;49.330;8.130;2022-07-23T06:15:28;22.20;97.20
54578;DHT22;40474;49.330;8.130;2022-07-23T06:17:55;22.20;97.40
54578;DHT22;40474;49.330;8.130;2022-07-23T06:20:23;22.00;98.60
54578;DHT22;40474;49.330;8.130;2022-07-23T06:22:54;22.00;98.80
54578;DHT22;40474;49.330;8.130;2022-07-23T06:25:20;22.00;99.00
54578;DHT22;40474;49.330;8.130;2022-07-23T06:27:48;22.00;98.90
54578;DHT22;40474;49.330;8.130;2022-07-23T06:30:22;22.00;98.40
54578;DHT22;40474;49.330;8.130;2022-07-23T06:32:53;22.10;98.70
54578;DHT22;40474;49.330;8.130;2022-07-23T06:35:20;22.10;98.40
54578;DHT22;40474;49.330;8.130;2022-07-23T06:37:48;22.20;98.20
54578;DHT22;40474;49.330;8.130;2022-07-23T06:40:17;22.30;98.70
54578;DHT22;40474;49.330;8.130;2022-07-23T06:42:43;22.20;98.40
54578;DHT22;40474;49.330;8.130;2022-07-23T06:45:12;22.30;97.90
54578;DHT22;40474;49.330;8.130;2022-07-23T06:47:51;22.40;97.20
54578;DHT22;40474;49.330;8.130;2022-07-23T06:50:22;22.60;97.20
54578;DHT22;40474;49.330;8.130;2022-07-23T06:52:49;22.90;97.10
54578;DHT22;40474;49.330;8.130;2022-07-23T06:55:21;22.80;96.10
54578;DHT22;40474;49.330;8.130;2022-07-23T06:57:48;22.80;96.50
54578;DHT22;40474;49.330;8.130;2022-07-23T07:00:15;22.90;95.90
54578;DHT22;40474;49.330;8.130;2022-07-23T07:02:41;22.90;95.70
54578;DHT22;40474;49.330;8.130;2022-07-23T07:05:08;22.90;96.10
54578;DHT22;40474;49.330;8.130;2022-07-23T07:07:35;22.90;96.90
54578;DHT22;40474;49.330;8.130;2022-07-23T07:10:02;22.90;95.90
54578;DHT22;40474;49.330;8.130;2022-07-23T07:12:29;23.00;96.60
54578;DHT22;40474;49.330;8.130;2022-07-23T07:14:56;22.90;97.40
54578;DHT22;40474;49.330;8.130;2022-07-23T07:17:23;22.90;97.50
54578;DHT22;40474;49.330;8.130;2022-07-23T07:19:52;23.10;96.60
54578;DHT22;40474;49.330;8.130;2022-07-23T07:22:19;23.20;97.30
54578;DHT22;40474;49.330;8.130;2022-07-23T07:24:47;23.20;96.50
54578;DHT22;40474;49.330;8.130;2022-07-23T07:27:13;23.30;94.90
54578;DHT22;40474;49.330;8.130;2022-07-23T07:29:41;23.10;95.40
54578;DHT22;40474;49.330;8.130;2022-07-23T07:32:08;22.90;96.00
54578;DHT22;40474;49.330;8.130;2022-07-23T07:34:35;22.90;96.20
54578;DHT22;40474;49.330;8.130;2022-07-23T07:37:01;22.80;96.00
54578;DHT22;40474;49.330;8.130;2022-07-23T07:39:28;22.90;95.30
54578;DHT22;40474;49.330;8.130;2022-07-23T07:41:56;23.10;95.40
54578;DHT22;40474;49.330;8.130;2022-07-23T07:44:23;24.00;91.50
54578;DHT22;40474;49.330;8.130;2022-07-23T07:46:50;24.60;93.10
54578;DHT22;40474;49.330;8.130;2022-07-23T07:49:18;24.50;92.70
54578;DHT22;40474;49.330;8.130;2022-07-23T07:51:48;24.30;92.60
54578;DHT22;40474;49.330;8.130;2022-07-23T07:54:15;24.10;92.80
54578;DHT22;40474;49.330;8.130;2022-07-23T07:56:42;24.00;93.10
54578;DHT22;40474;49.330;8.130;2022-07-23T07:59:09;23.80;92.80
54578;DHT22;40474;49.330;8.130;2022-07-23T08:01:37;24.50;92.70
54578;DHT22;40474;49.330;8.130;2022-07-23T08:04:04;26.60;89.80
54578;DHT22;40474;49.330;8.130;2022-07-23T08:06:31;28.00;84.30
54578;DHT22;40474;49.330;8.130;2022-07-23T08:08:58;29.70;80.50
54578;DHT22;40474;49.330;8.130;2022-07-23T08:11:25;30.40;74.80
54578;DHT22;40474;49.330;8.130;2022-07-23T08:13:51;30.70;73.20
54578;DHT22;40474;49.330;8.130;2022-07-23T08:16:19;30.70;67.20
54578;DHT22;40474;49.330;8.130;2022-07-23T08:18:46;30.60;68.10
54578;DHT22;40474;49.330;8.130;2022-07-23T08:21:13;30.30;70.00
54578;DHT22;40474;49.330;8.130;2022-07-23T08:23:40;29.90;70.80
54578;DHT22;40474;49.330;8.130;2022-07-23T08:26:06;30.20;71.00
54578;DHT22;40474;49.330;8.130;2022-07-23T08:28:33;29.90;71.90
54578;DHT22;40474;49.330;8.130;2022-07-23T08:31:00;29.50;73.20
54578;DHT22;40474;49.330;8.130;2022-07-23T08:33:27;29.60;74.10
54578;DHT22;40474;49.330;8.130;2022-07-23T08:36:00;29.40;73.40
54578;DHT22;40474;49.330;8.130;2022-07-23T08:38:30;29.10;74.40
54578;DHT22;40474;49.330;8.130;2022-07-23T08:40:59;30.20;72.50
54578;DHT22;40474;49.330;8.130;2022-07-23T08:43:27;31.00;68.80
54578;DHT22;40474;49.330;8.130;2022-07-23T08:45:54;30.70;68.50
54578;DHT22;40474;49.330;8.130;2022-07-23T08:48:33;29.90;69.50
54578;DHT22;40474;49.330;8.130;2022-07-23T08:51:02;29.10;72.70
54578;DHT22;40474;49.330;8.130;2022-07-23T08:53:30;28.30;74.30
54578;DHT22;40474;49.330;8.130;2022-07-23T08:55:59;27.80;77.10
54578;DHT22;40474;49.330;8.130;2022-07-23T08:58:28;28.10;77.70
54578;DHT22;40474;49.330;8.130;2022-07-23T09:00:55;28.30;76.60
54578;DHT22;40474;49.330;8.130;2022-07-23T09:03:25;28.90;76.20
54578;DHT22;40474;49.330;8.130;2022-07-23T09:05:52;29.90;73.40
54578;DHT22;40474;49.330;8.130;2022-07-23T09:08:20;31.20;68.60
54578;DHT22;40474;49.330;8.130;2022-07-23T09:10:50;32.40;66.30
54578;DHT22;40474;49.330;8.130;2022-07-23T09:16:16;33.60;60.50
54578;DHT22;40474;49.330;8.130;2022-07-23T09:18:44;34.50;55.30
54578;DHT22;40474;49.330;8.130;2022-07-23T09:21:27;35.00;52.80
54578;DHT22;40474;49.330;8.130;2022-07-23T09:23:58;35.20;53.10
54578;DHT22;40474;49.330;8.130;2022-07-23T09:26:29;35.90;50.80
54578;DHT22;40474;49.330;8.130;2022-07-23T09:31:47;36.90;47.70
54578;DHT22;40474;49.330;8.130;2022-07-23T09:34:15;35.70;49.40
54578;DHT22;40474;49.330;8.130;2022-07-23T09:36:42;35.10;49.50
54578;DHT22;40474;49.330;8.130;2022-07-23T09:39:09;36.20;51.10
54578;DHT22;40474;49.330;8.130;2022-07-23T09:41:37;36.60;47.60
54578;DHT22;40474;49.330;8.130;2022-07-23T09:44:08;37.10;47.60
54578;DHT22;40474;49.330;8.130;2022-07-23T09:46:38;37.70;45.30
54578;DHT22;40474;49.330;8.130;2022-07-23T09:49:10;38.10;44.60
54578;DHT22;40474;49.330;8.130;2022-07-23T09:51:48;36.60;45.30
54578;DHT22;40474;49.330;8.130;2022-07-23T09:56:49;35.70;46.90
54578;DHT22;40474;49.330;8.130;2022-07-23T09:59:22;36.40;48.20
54578;DHT22;40474;49.330;8.130;2022-07-23T10:01:50;36.40;46.70
54578;DHT22;40474;49.330;8.130;2022-07-23T10:04:20;36.10;47.10
54578;DHT22;40474;49.330;8.130;2022-07-23T10:06:48;35.70;48.10
54578;DHT22;40474;49.330;8.130;2022-07-23T10:09:22;35.10;48.20
54578;DHT22;40474;49.330;8.130;2022-07-23T10:11:49;34.20;50.10
54578;DHT22;40474;49.330;8.130;2022-07-23T10:14:18;35.10;49.50
54578;DHT22;40474;49.330;8.130;2022-07-23T10:16:45;36.00;46.50
54578;DHT22;40474;49.330;8.130;2022-07-23T10:19:13;36.00;43.70
54578;DHT22;40474;49.330;8.130;2022-07-23T10:21:41;35.00;48.00
54578;DHT22;40474;49.330;8.130;2022-07-23T10:24:16;33.80;46.40
54578;DHT22;40474;49.330;8.130;2022-07-23T10:26:58;33.50;50.90
54578;DHT22;40474;49.330;8.130;2022-07-23T10:34:55;34.60;49.90
54578;DHT22;40474;49.330;8.130;2022-07-23T10:40:20;33.90;50.30
54578;DHT22;40474;49.330;8.130;2022-07-23T10:42:50;32.70;52.30
54578;DHT22;40474;49.330;8.130;2022-07-23T10:47:55;32.80;49.60
54578;DHT22;40474;49.330;8.130;2022-07-23T10:50:37;33.10;52.50
54578;DHT22;40474;49.330;8.130;2022-07-23T10:53:09;33.50;51.90
54578;DHT22;40474;49.330;8.130;2022-07-23T10:58:03;32.10;54.30
54578;DHT22;40474;49.330;8.130;2022-07-23T11:00:32;31.10;55.90
54578;DHT22;40474;49.330;8.130;2022-07-23T11:03:01;30.30;57.60
54578;DHT22;40474;49.330;8.130;2022-07-23T11:05:41;29.80;60.10
54578;DHT22;40474;49.330;8.130;2022-07-23T11:08:16;29.50;60.60
54578;DHT22;40474;49.330;8.130;2022-07-23T11:10:45;29.30;60.90
54578;DHT22;40474;49.330;8.130;2022-07-23T11:16:23;30.90;58.90
54578;DHT22;40474;49.330;8.130;2022-07-23T11:23:59;33.50;52.90
54578;DHT22;40474;49.330;8.130;2022-07-23T11:29:50;33.60;49.90
54578;DHT22;40474;49.330;8.130;2022-07-23T11:32:01;32.70;51.20
54578;DHT22;40474;49.330;8.130;2022-07-23T11:34:32;32.00;52.90
54578;DHT22;40474;49.330;8.130;2022-07-23T11:37:02;31.50;54.20
54578;DHT22;40474;49.330;8.130;2022-07-23T11:39:30;31.00;53.30
54578;DHT22;40474;49.330;8.130;2022-07-23T11:41:57;30.60;56.10
54578;DHT22;40474;49.330;8.130;2022-07-23T11:44:29;30.50;56.50
54578;DHT22;40474;49.330;8.130;2022-07-23T11:47:01;30.30;57.60
54578;DHT22;40474;49.330;8.130;2022-07-23T11:49:30;30.10;57.40
54578;DHT22;40474;49.330;8.130;2022-07-23T11:54:34;29.80;58.50
54578;DHT22;40474;49.330;8.130;2022-07-23T11:57:06;29.80;59.70
54578;DHT22;40474;49.330;8.130;2022-07-23T11:59:33;29.90;59.00
54578;DHT22;40474;49.330;8.130;2022-07-23T12:04:41;29.60;59.30
54578;DHT22;40474;49.330;8.130;2022-07-23T12:09:54;29.70;56.70
54578;DHT22;40474;49.330;8.130;2022-07-23T12:12:21;29.40;60.30
54578;DHT22;40474;49.330;8.130;2022-07-23T12:14:52;29.40;59.90
54578;DHT22;40474;49.330;8.130;2022-07-23T12:17:27;29.30;60.60
54578;DHT22;40474;49.330;8.130;2022-07-23T12:19:55;29.30;61.00
54578;DHT22;40474;49.330;8.130;2022-07-23T12:22:26;29.90;60.20
54578;DHT22;40474;49.330;8.130;2022-07-23T12:25:00;30.10;58.60
54578;DHT22;40474;49.330;8.130;2022-07-23T12:27:27;30.20;59.20
54578;DHT22;40474;49.330;8.130;2022-07-23T12:29:54;30.10;58.10
54578;DHT22;40474;49.330;8.130;2022-07-23T12:32:25;30.00;59.10
54578;DHT22;40474;49.330;8.130;2022-07-23T12:35:06;30.00;59.60
54578;DHT22;40474;49.330;8.130;2022-07-23T12:37:33;30.70;59.30
54578;DHT22;40474;49.330;8.130;2022-07-23T12:42:49;32.20;53.40
54578;DHT22;40474;49.330;8.130;2022-07-23T12:45:16;32.00;54.20
54578;DHT22;40474;49.330;8.130;2022-07-23T12:47:52;31.70;54.80
54578;DHT22;40474;49.330;8.130;2022-07-23T12:53:06;31.90;54.10
54578;DHT22;40474;49.330;8.130;2022-07-23T12:55:39;32.50;53.50
54578;DHT22;40474;49.330;8.130;2022-07-23T12:58:26;32.70;51.60
54578;DHT22;40474;49.330;8.130;2022-07-23T13:01:03;32.40;52.30
54578;DHT22;40474;49.330;8.130;2022-07-23T13:03:35;31.80;53.40
54578;DHT22;40474;49.330;8.130;2022-07-23T13:06:06;31.30;55.60
54578;DHT22;40474;49.330;8.130;2022-07-23T13:08:34;31.40;54.80
54578;DHT22;40474;49.330;8.130;2022-07-23T13:11:01;31.90;55.90
54578;DHT22;40474;49.330;8.130;2022-07-23T13:13:28;32.50;53.60
54578;DHT22;40474;49.330;8.130;2022-07-23T13:15:56;32.50;53.30
54578;DHT22;40474;49.330;8.130;2022-07-23T13:18:23;32.00;53.40
54578;DHT22;40474;49.330;8.130;2022-07-23T13:20:50;31.90;52.20
54578;DHT22;40474;49.330;8.130;2022-07-23T13:23:18;31.70;54.10
54578;DHT22;40474;49.330;8.130;2022-07-23T13:25:46;31.30;54.90
54578;DHT22;40474;49.330;8.130;2022-07-23T13:28:13;30.90;55.30
54578;DHT22;40474;49.330;8.130;2022-07-23T13:30:40;30.70;55.80
54578;DHT22;40474;49.330;8.130;2022-07-23T13:33:07;30.70;56.20
54578;DHT22;40474;49.330;8.130;2022-07-23T13:35:35;31.10;55.60
54578;DHT22;40474;49.330;8.130;2022-07-23T13:38:03;31.50;54.30
54578;DHT22;40474;49.330;8.130;2022-07-23T13:40:33;31.40;54.50
54578;DHT22;40474;49.330;8.130;2022-07-23T13:43:05;31.30;54.70
54578;DHT22;40474;49.330;8.130;2022-07-23T13:45:34;31.10;55.10
54578;DHT22;40474;49.330;8.130;2022-07-23T13:48:00;30.90;56.00
54578;DHT22;40474;49.330;8.130;2022-07-23T13:50:27;30.50;56.90
54578;DHT22;40474;49.330;8.130;2022-07-23T13:53:05;30.40;58.10
54578;DHT22;40474;49.330;8.130;2022-07-23T13:55:33;30.30;57.70
54578;DHT22;40474;49.330;8.130;2022-07-23T13:58:00;30.00;59.00
54578;DHT22;40474;49.330;8.130;2022-07-23T14:00:27;29.80;58.50
54578;DHT22;40474;49.330;8.130;2022-07-23T14:03:13;29.90;57.50
54578;DHT22;40474;49.330;8.130;2022-07-23T14:05:42;29.90;58.30
54578;DHT22;40474;49.330;8.130;2022-07-23T14:08:10;30.00;58.00
54578;DHT22;40474;49.330;8.130;2022-07-23T14:10:40;30.10;57.70
54578;DHT22;40474;49.330;8.130;2022-07-23T14:13:08;30.00;58.20
54578;DHT22;40474;49.330;8.130;2022-07-23T14:15:35;30.20;57.90
54578;DHT22;40474;49.330;8.130;2022-07-23T14:18:05;30.20;57.40
54578;DHT22;40474;49.330;8.130;2022-07-23T14:20:31;30.30;56.50
54578;DHT22;40474;49.330;8.130;2022-07-23T14:22:59;30.30;57.50
54578;DHT22;40474;49.330;8.130;2022-07-23T14:25:31;30.30;58.50
54578;DHT22;40474;49.330;8.130;2022-07-23T14:27:59;30.30;54.20
54578;DHT22;40474;49.330;8.130;2022-07-23T14:30:26;30.20;56.80
54578;DHT22;40474;49.330;8.130;2022-07-23T14:33:00;30.30;54.60
54578;DHT22;40474;49.330;8.130;2022-07-23T14:35:27;30.30;57.30
54578;DHT22;40474;49.330;8.130;2022-07-23T14:37:54;30.30;56.30
54578;DHT22;40474;49.330;8.130;2022-07-23T14:40:22;30.40;56.70
54578;DHT22;40474;49.330;8.130;2022-07-23T14:42:49;30.40;56.40
54578;DHT22;40474;49.330;8.130;2022-07-23T14:45:16;30.30;56.40
54578;DHT22;40474;49.330;8.130;2022-07-23T14:47:45;30.00;55.90
54578;DHT22;40474;49.330;8.130;2022-07-23T14:50:13;29.80;55.30
54578;DHT22;40474;49.330;8.130;2022-07-23T14:52:40;29.60;55.50
54578;DHT22;40474;49.330;8.130;2022-07-23T14:55:07;29.50;54.90
54578;DHT22;40474;49.330;8.130;2022-07-23T14:57:34;29.60;55.30
54578;DHT22;40474;49.330;8.130;2022-07-23T15:00:03;29.50;53.80
54578;DHT22;40474;49.330;8.130;2022-07-23T15:02:30;29.60;55.10
54578;DHT22;40474;49.330;8.130;2022-07-23T15:04:58;29.70;54.80
54578;DHT22;40474;49.330;8.130;2022-07-23T15:07:28;29.70;53.00
54578;DHT22;40474;49.330;8.130;2022-07-23T15:09:56;29.60;52.70
54578;DHT22;40474;49.330;8.130;2022-07-23T15:12:25;29.70;54.60
54578;DHT22;40474;49.330;8.130;2022-07-23T15:14:52;29.60;53.10
54578;DHT22;40474;49.330;8.130;2022-07-23T15:17:19;29.50;52.90
54578;DHT22;40474;49.330;8.130;2022-07-23T15:19:47;29.30;54.10
54578;DHT22;40474;49.330;8.130;2022-07-23T15:22:15;29.20;54.00
54578;DHT22;40474;49.330;8.130;2022-07-23T15:24:42;29.10;53.40
54578;DHT22;40474;49.330;8.130;2022-07-23T15:27:09;28.80;55.50
54578;DHT22;40474;49.330;8.130;2022-07-23T15:29:36;28.70;54.30
54578;DHT22;40474;49.330;8.130;2022-07-23T15:32:03;28.90;53.60
54578;DHT22;40474;49.330;8.130;2022-07-23T15:34:30;28.80;54.20
54578;DHT22;40474;49.330;8.130;2022-07-23T15:37:00;28.90;53.90
54578;DHT22;40474;49.330;8.130;2022-07-23T15:39:27;28.80;55.70
54578;DHT22;40474;49.330;8.130;2022-07-23T15:41:54;28.80;53.90
54578;DHT22;40474;49.330;8.130;2022-07-23T15:44:24;28.50;54.90
54578;DHT22;40474;49.330;8.130;2022-07-23T15:46:58;28.50;54.30
54578;DHT22;40474;49.330;8.130;2022-07-23T15:49:27;28.70;53.30
54578;DHT22;40474;49.330;8.130;2022-07-23T15:51:54;28.80;56.10
54578;DHT22;40474;49.330;8.130;2022-07-23T15:54:21;28.80;53.50
54578;DHT22;40474;49.330;8.130;2022-07-23T15:56:48;28.80;55.00
54578;DHT22;40474;49.330;8.130;2022-07-23T15:59:15;28.70;56.60
54578;DHT22;40474;49.330;8.130;2022-07-23T16:01:42;28.60;54.00
54578;DHT22;40474;49.330;8.130;2022-07-23T16:04:09;28.50;56.60
54578;DHT22;40474;49.330;8.130;2022-07-23T16:06:36;28.40;55.50
54578;DHT22;40474;49.330;8.130;2022-07-23T16:09:05;28.50;56.50
54578;DHT22;40474;49.330;8.130;2022-07-23T16:11:38;28.60;56.20
54578;DHT22;40474;49.330;8.130;2022-07-23T16:14:07;28.60;55.70
54578;DHT22;40474;49.330;8.130;2022-07-23T16:16:37;28.70;54.30
54578;DHT22;40474;49.330;8.130;2022-07-23T16:19:04;28.80;54.40
54578;DHT22;40474;49.330;8.130;2022-07-23T16:21:32;28.80;53.10
54578;DHT22;40474;49.330;8.130;2022-07-23T16:23:59;29.00;55.50
54578;DHT22;40474;49.330;8.130;2022-07-23T16:26:26;28.80;54.80
54578;DHT22;40474;49.330;8.130;2022-07-23T16:28:53;28.60;54.40
54578;DHT22;40474;49.330;8.130;2022-07-23T16:31:20;28.60;52.80
54578;DHT22;40474;49.330;8.130;2022-07-23T16:33:47;28.70;55.50